Terminal Aerodrome Forecast
Issued by NWS

Home | Current Version | Previous Version | Text Only | Print | Product List | Glossary On
Versions: 1 2 3 4 5 6 7 8 9 10 11 12 13
900
FTUS42 KMLB 302320
TAFTIX
TAF
KTIX 302320Z 0100/0124 13008KT P6SM FEW030 SCT120 BKN200
     FM010200 14003KT P6SM FEW120 BKN200
     FM011400 13008KT P6SM FEW040 BKN250
      AMD NOT SKED 0101/0111=

USA.gov is the U.S. government's official web portal to all federal, state and local government web resources and services.